Time;durP1;ratioP1;P1;durP2;ratioP2;P2;SDS_P1;SDS_P2;PMS_P1;PMS_P2;Temp;Humidity;BMP_temperature;BMP_pressure;BME280_temperature;BME280_humidity;BME280_pressure;Samples;Min_cycle;Max_cycle;Signal;HPM_P1;HPM_P2
2021/03/10 00:01:37;;;;;;;28.05;14.60;;;;;;;3.86;81.86;98987.41;5010975;28;20040;-73
2021/03/10 00:04:02;;;;;;;25.23;15.13;;;;;;;3.89;82.18;98987.09;5013253;28;20036;-73
2021/03/10 00:06:28;;;;;;;28.23;14.25;;;;;;;3.88;81.51;98981.91;5013179;28;20029;-74
2021/03/10 00:08:53;;;;;;;26.33;14.73;;;;;;;3.74;81.49;98969.91;5013536;28;20025;-73
2021/03/10 00:11:18;;;;;;;27.77;14.45;;;;;;;3.69;81.43;98975.75;5013450;28;20022;-74
2021/03/10 00:13:43;;;;;;;27.30;14.32;;;;;;;3.74;81.90;98991.31;5013746;28;20028;-73
2021/03/10 00:16:09;;;;;;;27.95;14.27;;;;;;;3.64;82.31;98971.84;5013609;28;20479;-73
2021/03/10 00:18:34;;;;;;;24.80;14.55;;;;;;;3.67;82.49;98971.56;5013091;28;20037;-73
2021/03/10 00:20:59;;;;;;;28.63;15.25;;;;;;;3.66;82.73;98977.88;5014183;28;20044;-74
2021/03/10 00:23:24;;;;;;;28.95;14.82;;;;;;;3.56;82.75;98994.00;5013793;28;20050;-73
2021/03/10 00:25:50;;;;;;;24.10;14.40;;;;;;;3.62;81.63;98973.84;5013546;28;20064;-73
2021/03/10 00:28:15;;;;;;;27.08;14.02;;;;;;;3.74;82.03;98978.78;5013100;28;20068;-73
2021/03/10 00:30:40;;;;;;;26.73;14.38;;;;;;;3.50;82.50;98984.75;5019874;28;20026;-74
2021/03/10 00:33:05;;;;;;;25.02;13.35;;;;;;;3.63;82.33;98989.72;5028699;28;20026;-74
2021/03/10 00:35:31;;;;;;;26.70;15.15;;;;;;;3.51;82.33;98994.50;5013182;28;20029;-73
2021/03/10 00:37:58;;;;;;;30.40;14.77;;;;;;;3.48;82.60;99001.97;5013680;28;20105;-73
2021/03/10 00:40:23;;;;;;;30.95;15.48;;;;;;;3.45;82.95;99012.97;5012222;28;20116;-73
2021/03/10 00:42:49;;;;;;;32.47;17.35;;;;;;;3.45;84.17;99004.94;5012325;28;20156;-73
2021/03/10 00:45:14;;;;;;;33.53;17.48;;;;;;;3.40;85.17;99012.59;5012211;28;20480;-73
2021/03/10 00:47:40;;;;;;;34.83;17.90;;;;;;;3.36;84.86;99008.56;5011266;28;20525;-73
2021/03/10 00:50:05;;;;;;;29.27;15.77;;;;;;;3.34;85.46;99013.19;5012397;28;20052;-73
2021/03/10 00:52:31;;;;;;;30.90;16.25;;;;;;;3.43;85.55;99015.81;5011433;28;20064;-73
2021/03/10 00:54:56;;;;;;;34.58;16.08;;;;;;;3.38;84.87;99007.41;5012873;28;20025;-73
2021/03/10 00:57:21;;;;;;;32.20;16.45;;;;;;;3.42;84.74;99007.94;5012153;28;20176;-73
2021/03/10 00:59:46;;;;;;;29.65;16.05;;;;;;;3.34;84.71;99010.53;5011164;28;20037;-73
2021/03/10 01:02:12;;;;;;;32.13;16.65;;;;;;;3.24;84.73;99002.56;5012596;28;20094;-73
2021/03/10 01:04:37;;;;;;;30.35;16.52;;;;;;;3.28;85.04;99018.16;5012498;28;20534;-74
2021/03/10 01:07:02;;;;;;;31.17;16.90;;;;;;;3.21;85.72;99017.09;5010912;28;20035;-73
2021/03/10 01:09:27;;;;;;;32.28;17.55;;;;;;;3.21;85.79;99016.25;5011260;28;20022;-74
2021/03/10 01:11:53;;;;;;;33.97;17.05;;;;;;;3.05;86.56;98990.19;5012106;28;20168;-73
2021/03/10 01:14:18;;;;;;;34.78;16.17;;;;;;;3.14;85.80;98997.28;5012777;28;20049;-74
2021/03/10 01:16:43;;;;;;;31.83;16.77;;;;;;;3.09;85.07;99002.25;5011336;28;20483;-73
2021/03/10 01:19:09;;;;;;;32.97;16.67;;;;;;;3.19;85.35;99012.88;5012240;28;20037;-73
2021/03/10 01:21:34;;;;;;;32.13;17.20;;;;;;;3.08;85.91;99004.06;5012106;28;20037;-73
2021/03/10 01:23:59;;;;;;;33.55;17.20;;;;;;;3.09;85.67;99004.91;5015851;28;20049;-74
2021/03/10 01:26:25;;;;;;;28.50;16.23;;;;;;;3.19;85.88;99008.38;5013327;28;20454;-73
2021/03/10 01:28:50;;;;;;;32.88;16.42;;;;;;;3.16;85.84;99002.50;5021325;28;20180;-74
2021/03/10 01:31:15;;;;;;;30.67;16.27;;;;;;;3.09;85.73;98991.53;5006595;28;20033;-73
2021/03/10 01:33:41;;;;;;;33.65;17.52;;;;;;;3.12;85.71;98995.75;5014480;28;20373;-73
2021/03/10 01:36:06;;;;;;;33.75;17.33;;;;;;;3.11;85.72;99005.59;5013878;28;20041;-74
2021/03/10 01:38:32;;;;;;;36.72;16.70;;;;;;;3.11;85.86;98994.91;5017302;28;20037;-73
2021/03/10 01:40:57;;;;;;;30.77;15.70;;;;;;;3.19;85.81;98997.66;5015823;28;20022;-73
2021/03/10 01:43:22;;;;;;;32.72;15.57;;;;;;;3.21;85.84;98993.03;5013493;28;20028;-74
2021/03/10 01:45:47;;;;;;;34.20;16.67;;;;;;;3.32;85.77;98988.44;5014120;28;20036;-73
2021/03/10 01:48:14;;;;;;;30.90;15.95;;;;;;;3.34;84.90;98983.78;5012809;28;20418;-73
2021/03/10 01:50:40;;;;;;;35.97;16.42;;;;;;;3.37;85.25;98988.81;5030505;28;20093;-73
2021/03/10 01:53:05;;;;;;;34.33;18.00;;;;;;;3.35;85.96;98985.47;5032462;28;20118;-73
2021/03/10 01:55:32;;;;;;;34.60;17.02;;;;;;;3.34;85.41;98979.28;5037274;28;20535;-73
2021/03/10 01:57:57;;;;;;;31.48;16.38;;;;;;;3.47;85.28;98989.59;5013503;28;20025;-73
2021/03/10 02:00:28;;;;;;;32.22;16.23;;;;;;;3.42;84.86;98995.41;5017646;28;20355;-73
2021/03/10 02:02:54;;;;;;;35.15;17.50;;;;;;;3.42;84.58;98987.38;5029257;28;20040;-74
2021/03/10 02:05:22;;;;;;;36.72;17.10;;;;;;;3.47;85.00;98989.59;5027982;28;20518;-73
2021/03/10 02:08:14;;;;;;;34.65;18.25;;;;;;;3.48;84.50;98984.09;5013368;28;20033;-73
2021/03/10 02:11:06;;;;;;;34.53;17.50;;;;;;;3.29;85.02;98976.22;4994489;28;20412;-73
2021/03/10 02:13:58;;;;;;;31.95;16.52;;;;;;;3.53;85.16;98983.63;5030310;28;20025;-73
2021/03/10 02:16:41;;;;;;;31.05;17.05;;;;;;;3.37;85.29;98962.09;5030017;28;20033;-73
2021/03/10 02:19:44;;;;;;;35.40;17.23;;;;;;;3.55;85.31;98976.28;5025942;28;20021;-73
2021/03/10 02:22:46;;;;;;;32.40;16.48;;;;;;;3.66;85.13;98973.34;5013349;28;20442;-73
2021/03/10 02:25:50;;;;;;;33.40;17.58;;;;;;;3.58;84.31;98962.59;5016600;28;20037;-74
2021/03/10 02:28:15;;;;;;;31.52;17.15;;;;;;;3.69;85.06;98967.72;5013436;28;20407;-74
2021/03/10 02:30:43;;;;;;;32.13;16.42;;;;;;;3.57;85.07;98973.47;5028343;28;20025;-74
2021/03/10 02:33:18;;;;;;;34.08;16.67;;;;;;;3.51;85.93;98964.19;5013309;28;20365;-73
2021/03/10 02:35:51;;;;;;;35.05;17.17;;;;;;;3.61;85.66;98975.66;5011368;28;20021;-73
2021/03/10 02:38:20;;;;;;;32.10;17.30;;;;;;;3.41;85.64;98964.31;5012573;28;20026;-74
2021/03/10 02:40:48;;;;;;;31.52;16.50;;;;;;;3.39;85.99;98976.16;5024660;28;20034;-73
2021/03/10 02:43:14;;;;;;;39.08;17.90;;;;;;;3.38;86.63;98983.34;5022143;28;20026;-74
2021/03/10 02:45:40;;;;;;;37.30;18.27;;;;;;;3.41;86.46;98966.97;5029677;28;20494;-74
2021/03/10 02:48:06;;;;;;;35.78;17.90;;;;;;;3.56;86.18;98966.41;5013021;28;20092;-74
2021/03/10 02:50:32;;;;;;;40.65;17.13;;;;;;;3.52;85.78;98965.91;5036548;28;20034;-74
2021/03/10 02:53:01;;;;;;;35.92;19.48;;;;;;;3.68;85.29;98975.88;5012697;28;20030;-73
2021/03/10 02:55:27;;;;;;;35.88;17.85;;;;;;;3.57;85.46;98982.34;5012284;28;20025;-73
2021/03/10 02:57:52;;;;;;;37.13;19.40;;;;;;;3.50;85.72;98983.94;5012743;28;20553;-73
2021/03/10 03:00:20;;;;;;;36.13;19.38;;;;;;;3.58;85.46;98994.69;5012480;28;20093;-74
2021/03/10 03:02:46;;;;;;;32.25;17.00;;;;;;;3.57;85.99;98992.19;5012723;28;20021;-73
2021/03/10 03:05:12;;;;;;;33.78;17.58;;;;;;;3.43;86.12;98982.84;5013270;28;20029;-73
2021/03/10 03:07:39;;;;;;;36.22;17.92;;;;;;;3.42;86.58;99003.41;5004540;28;20035;-74
2021/03/10 03:10:11;;;;;;;32.28;17.75;;;;;;;3.31;86.77;98989.44;5016427;28;20076;-73
2021/03/10 03:12:39;;;;;;;35.05;17.17;;;;;;;3.28;86.32;99002.13;5012508;28;20034;-74
2021/03/10 03:15:05;;;;;;;41.22;18.63;;;;;;;3.35;86.76;98996.16;5020054;28;20037;-73
2021/03/10 03:17:32;;;;;;;34.47;17.02;;;;;;;3.35;86.52;99004.19;5012238;28;20026;-73
2021/03/10 03:19:57;;;;;;;38.10;18.17;;;;;;;3.28;86.97;99009.31;5015777;28;20206;-74
2021/03/10 03:22:24;;;;;;;33.50;18.08;;;;;;;3.25;86.86;99007.78;5026548;28;20462;-74
2021/03/10 03:24:50;;;;;;;34.17;17.30;;;;;;;3.24;87.54;99005.25;5029530;28;20414;-74
2021/03/10 03:27:25;;;;;;;36.15;17.23;;;;;;;3.29;87.13;99025.19;5012191;28;20085;-73
2021/03/10 03:29:58;;;;;;;34.72;18.35;;;;;;;3.26;86.96;99030.84;5027716;28;20080;-74
2021/03/10 03:32:26;;;;;;;34.83;17.65;;;;;;;3.29;86.22;99010.97;5012160;28;20026;-73
2021/03/10 03:34:53;;;;;;;36.75;17.75;;;;;;;3.23;86.82;99024.97;5012016;28;20036;-73
2021/03/10 03:37:19;;;;;;;39.67;19.23;;;;;;;3.02;87.23;99006.53;5012410;28;20438;-73
2021/03/10 03:39:44;;;;;;;37.92;18.60;;;;;;;3.15;87.69;99025.72;5012740;28;20054;-73
2021/03/10 03:42:10;;;;;;;33.95;18.08;;;;;;;3.04;87.79;99026.78;5017633;28;20105;-72
2021/03/10 03:44:36;;;;;;;33.25;16.95;;;;;;;3.03;87.55;99024.22;5012325;28;20037;-73
2021/03/10 03:47:02;;;;;;;36.78;18.48;;;;;;;3.10;87.88;99021.81;5028276;28;20411;-73
2021/03/10 03:49:27;;;;;;;39.42;19.70;;;;;;;3.08;87.62;99021.94;5012032;28;20763;-73
2021/03/10 03:51:52;;;;;;;35.97;17.92;;;;;;;3.22;87.38;99018.78;5011745;28;20102;-73
2021/03/10 03:54:18;;;;;;;36.67;17.83;;;;;;;3.21;87.62;99040.31;5011698;28;20391;-74
2021/03/10 03:56:43;;;;;;;38.45;19.13;;;;;;;3.16;87.92;99027.38;5026563;28;20033;-73
2021/03/10 03:59:08;;;;;;;37.45;18.77;;;;;;;3.23;87.67;99044.50;5012364;28;20025;-73
2021/03/10 04:01:34;;;;;;;35.33;17.63;;;;;;;3.09;87.71;99028.97;5031369;23;20043;-75
2021/03/10 04:03:59;;;;;;;35.45;19.35;;;;;;;3.14;88.38;99049.91;4995451;28;20109;-76
2021/03/10 04:06:24;;;;;;;36.85;18.00;;;;;;;3.02;88.25;99036.75;4994696;28;20463;-75
2021/03/10 04:08:49;;;;;;;44.08;18.85;;;;;;;3.08;88.28;99038.00;4984544;28;20045;-78
2021/03/10 04:11:17;;;;;;;45.85;19.60;;;;;;;3.22;87.84;99032.16;4993649;28;20110;-79
2021/03/10 04:13:42;;;;;;;42.10;19.42;;;;;;;3.26;87.14;99019.31;5002638;28;20116;-76
2021/03/10 04:16:08;;;;;;;40.00;18.70;;;;;;;3.23;87.09;99030.31;4981460;28;20067;-77
2021/03/10 04:18:39;;;;;;;43.22;19.77;;;;;;;3.35;87.14;99036.28;4991047;28;20108;-77
2021/03/10 04:21:05;;;;;;;42.13;19.50;;;;;;;3.35;86.79;99030.91;5012800;28;20034;-77
2021/03/10 04:23:31;;;;;;;37.17;18.77;;;;;;;3.41;86.28;99036.53;5015166;28;20026;-76
2021/03/10 04:25:56;;;;;;;36.35;19.30;;;;;;;3.53;85.86;99044.31;4996990;28;20037;-70
2021/03/10 04:28:22;;;;;;;39.47;19.65;;;;;;;3.49;86.21;99025.06;4994485;28;20045;-70
2021/03/10 04:30:47;;;;;;;41.40;19.45;;;;;;;3.33;86.42;99035.56;4989201;28;20454;-70
2021/03/10 04:33:12;;;;;;;44.38;20.02;;;;;;;3.25;86.89;99047.88;4986583;28;20118;-70
2021/03/10 04:35:37;;;;;;;40.83;20.08;;;;;;;3.19;87.40;99048.47;4979071;28;20026;-70
2021/03/10 04:38:03;;;;;;;40.85;19.65;;;;;;;3.19;87.26;99044.97;4986222;28;20031;-71
2021/03/10 04:40:28;;;;;;;37.35;19.58;;;;;;;3.11;88.19;99044.88;4986406;28;20439;-71
2021/03/10 04:42:53;;;;;;;41.08;19.80;;;;;;;3.03;88.19;99034.94;4988932;28;20035;-73
2021/03/10 04:45:19;;;;;;;37.70;18.33;;;;;;;3.06;88.03;99029.28;4975668;28;20022;-73
2021/03/10 04:47:45;;;;;;;40.22;19.02;;;;;;;3.19;87.89;99056.50;5000999;28;20034;-71
2021/03/10 04:50:13;;;;;;;41.15;19.08;;;;;;;3.29;87.86;99061.78;4989528;28;20085;-71
2021/03/10 04:52:38;;;;;;;40.22;19.73;;;;;;;3.37;87.45;99064.53;4985021;28;20030;-70
2021/03/10 04:55:06;;;;;;;37.53;18.83;;;;;;;3.30;87.60;99060.78;4993053;28;20029;-71
2021/03/10 04:57:31;;;;;;;41.42;20.27;;;;;;;3.57;86.54;99054.56;4983964;28;20027;-71
2021/03/10 04:59:56;;;;;;;39.40;18.48;;;;;;;3.60;86.40;99059.59;4986416;28;20480;-77
2021/03/10 05:02:22;;;;;;;40.30;19.05;;;;;;;3.39;86.55;99053.72;5003937;28;20034;-75
2021/03/10 05:04:47;;;;;;;36.67;18.30;;;;;;;3.26;87.07;99044.22;5009467;28;20514;-78
2021/03/10 05:07:12;;;;;;;40.80;19.35;;;;;;;3.21;87.27;99046.50;5008931;28;20026;-74
2021/03/10 05:09:38;;;;;;;41.20;19.42;;;;;;;3.26;86.92;99041.53;5010919;28;20476;-73
2021/03/10 05:12:03;;;;;;;39.60;19.52;;;;;;;3.27;87.44;99061.94;4993989;28;20030;-75
2021/03/10 05:14:29;;;;;;;47.63;20.70;;;;;;;3.27;86.97;99061.94;4993476;28;20066;-71
2021/03/10 05:16:54;;;;;;;46.97;20.75;;;;;;;3.08;87.83;99040.66;4992765;28;20038;-72
2021/03/10 05:19:19;;;;;;;42.95;19.17;;;;;;;3.23;87.53;99065.91;4997202;28;20034;-74
2021/03/10 05:21:44;;;;;;;37.88;18.95;;;;;;;3.13;88.04;99048.25;4986414;28;20034;-75
2021/03/10 05:24:10;;;;;;;39.67;19.98;;;;;;;3.15;87.94;99056.97;4989343;28;20022;-75
2021/03/10 05:26:39;;;;;;;42.40;20.42;;;;;;;3.18;87.66;99062.00;4987858;28;20046;-71
2021/03/10 05:29:05;;;;;;;42.45;20.70;;;;;;;3.09;87.58;99050.34;4993436;28;20027;-73
2021/03/10 05:31:30;;;;;;;38.58;20.45;;;;;;;3.02;88.49;99060.81;4992601;28;20032;-72
2021/03/10 05:33:56;;;;;;;41.90;20.25;;;;;;;3.15;88.56;99065.81;4986220;28;20539;-73
2021/03/10 05:36:22;;;;;;;41.13;20.00;;;;;;;3.28;87.88;99068.13;4994182;28;20053;-73
2021/03/10 05:38:47;;;;;;;40.67;19.33;;;;;;;3.29;87.16;99059.13;4987190;28;20023;-73
2021/03/10 05:41:14;;;;;;;46.35;20.65;;;;;;;3.27;87.08;99079.81;4990758;28;20038;-73
2021/03/10 05:43:39;;;;;;;41.03;20.33;;;;;;;3.19;87.27;99064.50;4988144;28;20396;-69
2021/03/10 05:46:05;;;;;;;41.55;20.98;;;;;;;3.22;87.29;99074.94;4976869;28;20045;-69
2021/03/10 05:48:30;;;;;;;48.30;20.20;;;;;;;3.15;87.26;99063.16;4977357;28;20022;-76
2021/03/10 05:50:56;;;;;;;43.65;21.02;;;;;;;3.27;87.35;99074.47;5010882;28;20031;-74
2021/03/10 05:53:22;;;;;;;38.75;19.95;;;;;;;3.16;87.32;99070.16;4984651;28;20399;-73
2021/03/10 05:55:49;;;;;;;51.08;21.65;;;;;;;3.16;87.14;99075.50;4990947;28;20064;-71
2021/03/10 05:58:15;;;;;;;52.83;22.70;;;;;;;2.99;88.12;99071.81;4986860;28;20037;-77
2021/03/10 06:00:45;;;;;;;50.53;23.63;;;;;;;2.97;88.35;99092.50;4992025;28;20023;-68
2021/03/10 06:03:14;;;;;;;46.85;22.20;;;;;;;2.91;88.77;99089.56;4985556;28;20381;-72
2021/03/10 06:05:40;;;;;;;50.38;24.08;;;;;;;2.89;88.74;99071.00;4988151;28;20030;-68
2021/03/10 06:08:07;;;;;;;45.90;21.85;;;;;;;2.90;88.47;99077.19;4987317;28;20037;-68
2021/03/10 06:10:50;;;;;;;51.20;20.92;;;;;;;2.91;88.11;99084.22;4997244;28;20038;-75
2021/03/10 06:13:23;;;;;;;46.90;21.85;;;;;;;3.03;88.02;99096.41;4996308;28;20098;-74
2021/03/10 06:19:09;;;;;;;47.60;21.08;;;;;;;3.13;87.22;99086.50;4980586;28;20033;-73
2021/03/10 06:21:35;;;;;;;48.25;21.40;;;;;;;3.05;86.98;99091.75;4988305;28;20042;-70
2021/03/10 06:24:03;;;;;;;47.35;22.20;;;;;;;3.14;87.25;99103.38;4992941;28;20718;-71
2021/03/10 06:26:33;;;;;;;51.83;23.58;;;;;;;3.09;87.61;99090.44;4990133;28;20122;-71
2021/03/10 06:29:00;;;;;;;52.15;22.58;;;;;;;3.01;87.53;99079.66;4991471;28;20029;-74
2021/03/10 06:31:30;;;;;;;52.03;23.75;;;;;;;3.15;87.40;99121.97;4990962;28;20519;-73
2021/03/10 06:34:07;;;;;;;51.92;22.13;;;;;;;3.21;87.83;99124.03;4992564;28;20061;-75
2021/03/10 06:36:39;;;;;;;45.50;21.92;;;;;;;3.22;86.80;99114.16;4987805;28;20034;-75
2021/03/10 06:39:06;;;;;;;49.70;21.67;;;;;;;3.42;86.82;99121.09;4991184;28;20073;-73
2021/03/10 06:41:34;;;;;;;48.80;21.05;;;;;;;3.44;86.43;99108.41;5005964;28;20503;-70
2021/03/10 06:44:00;;;;;;;46.10;21.75;;;;;;;3.56;86.13;99109.03;4979365;28;20065;-72
2021/03/10 06:46:26;;;;;;;50.35;23.30;;;;;;;3.77;85.37;99121.28;4990360;28;20030;-72
2021/03/10 06:48:52;;;;;;;54.28;24.60;;;;;;;3.81;85.55;99120.84;4989971;28;20502;-69
2021/03/10 06:51:19;;;;;;;53.17;22.75;;;;;;;3.86;84.46;99115.88;4979016;28;20026;-74
2021/03/10 06:53:44;;;;;;;44.10;20.95;;;;;;;3.91;83.98;99102.03;4993810;28;20026;-71
2021/03/10 06:56:36;;;;;;;44.28;21.13;;;;;;;4.08;83.61;99127.09;4990176;28;20092;-72
2021/03/10 06:59:03;;;;;;;45.15;21.30;;;;;;;4.20;83.79;99125.03;4990229;28;20103;-74
2021/03/10 07:01:44;;;;;;;44.35;20.25;;;;;;;4.36;82.49;99117.97;4983766;28;20027;-67
2021/03/10 07:04:13;;;;;;;48.45;21.05;;;;;;;4.41;82.57;99132.75;4986592;28;20033;-72
2021/03/10 07:06:41;;;;;;;44.60;22.17;;;;;;;4.35;82.34;99134.22;4982001;28;20023;-72
2021/03/10 07:09:10;;;;;;;46.72;22.40;;;;;;;4.42;81.43;99123.69;4983063;28;20034;-74
2021/03/10 07:11:36;;;;;;;50.30;21.42;;;;;;;4.64;80.71;99143.78;4985889;28;20046;-76
2021/03/10 07:14:01;;;;;;;53.25;20.83;;;;;;;4.71;81.16;99139.47;4987753;28;20042;-73
2021/03/10 07:16:32;;;;;;;51.25;22.38;;;;;;;4.93;79.80;99135.44;5001023;28;20037;-71
2021/03/10 07:18:58;;;;;;;45.85;21.10;;;;;;;4.84;79.05;99126.50;5003068;28;20072;-72
2021/03/10 07:21:34;;;;;;;45.88;20.98;;;;;;;4.99;79.30;99138.31;4986529;28;20121;-72
2021/03/10 07:24:02;;;;;;;44.70;20.38;;;;;;;5.25;77.85;99137.44;4977465;28;20479;-71
2021/03/10 07:26:28;;;;;;;41.15;20.13;;;;;;;5.44;77.64;99131.78;4983548;28;20027;-73
2021/03/10 07:29:00;;;;;;;44.55;20.38;;;;;;;5.58;77.21;99149.13;4977139;28;20111;-70
2021/03/10 07:31:26;;;;;;;41.17;21.20;;;;;;;5.44;77.31;99139.00;4979980;28;20046;-73
2021/03/10 07:33:53;;;;;;;45.20;22.80;;;;;;;5.29;77.23;99117.31;4996780;28;20026;-73
2021/03/10 07:36:50;;;;;;;45.60;22.48;;;;;;;5.43;76.60;99146.22;4977210;28;20041;-75
2021/03/10 07:39:24;;;;;;;45.05;21.58;;;;;;;5.68;75.77;99162.41;4985489;28;20038;-70
2021/03/10 07:41:50;;;;;;;46.70;20.40;;;;;;;5.66;75.88;99161.75;4985983;28;20407;-68
2021/03/10 07:44:21;;;;;;;45.95;20.80;;;;;;;5.66;76.58;99153.69;4987145;28;20034;-76
2021/03/10 07:46:48;;;;;;;41.63;20.85;;;;;;;5.58;76.76;99169.75;4989654;28;20384;-77
2021/03/10 07:49:24;;;;;;;40.55;20.73;;;;;;;5.72;76.57;99174.50;4989959;28;20041;-71
2021/03/10 07:52:27;;;;;;;42.50;20.92;;;;;;;5.55;77.27;99175.44;4994601;28;20849;-75
2021/03/10 07:55:00;;;;;;;46.05;21.15;;;;;;;5.54;77.07;99179.16;4953411;28;20094;-74
2021/03/10 07:57:26;;;;;;;43.97;21.45;;;;;;;5.64;77.56;99180.69;4986549;28;20046;-69
2021/03/10 07:59:53;;;;;;;44.05;20.85;;;;;;;5.83;78.02;99184.94;4994463;28;20088;-68
2021/03/10 08:02:19;;;;;;;42.65;21.15;;;;;;;5.90;76.94;99177.09;4994146;28;20024;-70
2021/03/10 08:05:00;;;;;;;46.30;20.90;;;;;;;6.07;75.68;99180.66;4983835;28;20053;-69
2021/03/10 08:07:27;;;;;;;46.35;21.80;;;;;;;6.30;74.91;99184.38;5007968;28;20519;-70
2021/03/10 08:09:53;;;;;;;40.10;21.38;;;;;;;6.61;73.89;99183.72;4995237;28;20049;-69
2021/03/10 08:12:31;;;;;;;45.38;20.67;;;;;;;6.66;73.00;99170.63;4991912;28;20022;-70
2021/03/10 08:14:56;;;;;;;42.33;21.83;;;;;;;6.81;73.08;99168.06;4982108;28;20113;-68
2021/03/10 08:17:26;;;;;;;44.97;21.15;;;;;;;6.75;72.60;99147.25;4985137;28;20118;-66
2021/03/10 08:19:53;;;;;;;40.40;20.77;;;;;;;7.03;72.04;99188.06;4985854;28;20026;-68
2021/03/10 08:22:24;;;;;;;44.60;21.80;;;;;;;7.12;71.08;99181.63;4995649;28;20023;-71
2021/03/10 08:24:50;;;;;;;40.80;20.98;;;;;;;7.06;71.91;99170.72;5010436;28;20069;-69
2021/03/10 08:27:15;;;;;;;42.30;21.38;;;;;;;6.82;72.07;99177.00;5002190;28;20078;-70
2021/03/10 08:29:50;;;;;;;36.85;20.38;;;;;;;7.24;70.91;99168.66;5001534;28;20475;-70
2021/03/10 08:32:33;;;;;;;36.70;20.55;;;;;;;7.87;69.63;99177.66;5006921;28;20057;-70
2021/03/10 08:35:13;;;;;;;36.58;19.77;;;;;;;8.58;66.59;99161.34;5024639;28;20113;-69
2021/03/10 08:37:41;;;;;;;41.00;20.05;;;;;;;9.21;64.69;99151.94;5011896;28;20030;-72
2021/03/10 08:40:10;;;;;;;41.60;21.35;;;;;;;9.61;63.64;99149.78;5006391;28;20022;-71
2021/03/10 08:42:35;;;;;;;38.83;21.08;;;;;;;9.87;62.54;99152.78;5002845;28;20026;-69
2021/03/10 08:45:01;;;;;;;38.72;20.23;;;;;;;11.02;59.85;99152.84;5015150;28;20089;-70
2021/03/10 08:47:27;;;;;;;35.63;20.83;;;;;;;12.43;56.56;99142.41;5031136;28;20035;-70
2021/03/10 08:49:55;;;;;;;35.40;20.20;;;;;;;12.57;55.68;99159.53;5014629;28;20034;-70
2021/03/10 08:52:21;;;;;;;37.45;20.58;;;;;;;13.18;54.27;99155.75;5011501;28;20455;-70
2021/03/10 08:54:54;;;;;;;34.70;20.35;;;;;;;13.36;52.85;99150.50;4996977;28;20037;-71
2021/03/10 08:57:23;;;;;;;31.65;19.48;;;;;;;12.97;52.90;99162.25;5001311;28;20369;-69
2021/03/10 08:59:49;;;;;;;35.45;20.55;;;;;;;11.99;54.83;99151.91;5022027;28;20060;-71
2021/03/10 09:02:16;;;;;;;37.45;20.60;;;;;;;12.79;53.49;99147.44;5002408;28;20450;-68
2021/03/10 09:04:49;;;;;;;34.08;19.85;;;;;;;13.30;52.20;99148.66;4983385;28;20124;-67
2021/03/10 09:07:18;;;;;;;35.15;20.77;;;;;;;13.51;51.15;99150.28;5004469;28;20052;-70
2021/03/10 09:09:44;;;;;;;35.65;19.92;;;;;;;14.06;51.01;99147.94;4994150;28;20026;-71
2021/03/10 09:12:12;;;;;;;35.08;20.48;;;;;;;14.11;50.23;99139.97;4992223;28;20383;-72
2021/03/10 09:14:37;;;;;;;33.03;20.17;;;;;;;13.53;51.43;99150.91;4993532;28;20026;-69
2021/03/10 09:17:03;;;;;;;32.92;19.35;;;;;;;12.35;54.07;99151.59;5007429;28;20057;-72
2021/03/10 09:19:37;;;;;;;32.38;20.15;;;;;;;12.36;53.85;99161.38;4994203;28;20057;-71
2021/03/10 09:22:15;;;;;;;35.13;21.13;;;;;;;12.07;55.04;99154.44;4994225;28;20029;-70
2021/03/10 09:24:55;;;;;;;34.65;20.60;;;;;;;12.12;53.99;99156.53;4992909;28;20500;-72
2021/03/10 09:27:26;;;;;;;35.58;20.85;;;;;;;13.50;51.19;99148.63;4992778;28;20041;-70
2021/03/10 09:29:54;;;;;;;31.90;19.77;;;;;;;13.06;52.25;99153.69;4992765;28;20037;-71
2021/03/10 09:32:20;;;;;;;33.47;19.88;;;;;;;11.99;55.30;99146.50;5000238;28;20317;-72
2021/03/10 09:34:47;;;;;;;34.20;19.75;;;;;;;11.96;53.80;99136.06;5001104;28;20093;-71
2021/03/10 09:37:13;;;;;;;32.97;19.23;;;;;;;12.67;53.50;99147.22;4992188;28;20038;-71
2021/03/10 09:39:47;;;;;;;33.00;17.85;;;;;;;12.79;51.10;99136.59;4987168;28;20086;-70
2021/03/10 09:42:13;;;;;;;33.90;18.80;;;;;;;12.16;52.91;99131.53;4984596;28;20045;-72
2021/03/10 09:44:46;;;;;;;32.03;18.88;;;;;;;11.73;54.51;99141.78;4979629;28;20492;-71
2021/03/10 09:47:13;;;;;;;33.35;19.40;;;;;;;12.62;52.00;99128.00;4989440;28;20034;-70
2021/03/10 09:49:47;;;;;;;33.90;19.52;;;;;;;13.98;50.16;99124.56;4983471;28;20535;-73
2021/03/10 09:52:12;;;;;;;37.58;20.25;;;;;;;14.91;48.02;99131.25;4983543;28;20121;-74
2021/03/10 09:54:51;;;;;;;30.83;18.55;;;;;;;16.14;46.49;99129.47;4992832;28;20118;-72
2021/03/10 09:57:27;;;;;;;31.67;19.27;;;;;;;16.23;44.45;99114.41;4982347;28;20141;-73
2021/03/10 09:59:52;;;;;;;28.20;17.85;;;;;;;16.47;43.69;99117.22;4978383;28;20497;-71
2021/03/10 10:02:18;;;;;;;32.42;19.08;;;;;;;15.96;43.89;99128.44;5322528;23;20052;-75
2021/03/10 10:04:44;;;;;;;28.88;18.30;;;;;;;16.09;43.55;99132.06;5013440;28;20041;-73
2021/03/10 10:07:12;;;;;;;27.33;18.15;;;;;;;15.66;43.08;99135.72;5032496;28;20045;-74
2021/03/10 10:09:37;;;;;;;25.42;16.10;;;;;;;16.76;41.86;99118.19;5013083;28;20566;-74
2021/03/10 10:12:03;;;;;;;25.30;16.05;;;;;;;15.83;43.23;99130.50;5002349;28;20121;-73
2021/03/10 10:14:29;;;;;;;26.83;17.00;;;;;;;16.48;41.98;99127.06;5003464;28;20038;-75
2021/03/10 10:16:54;;;;;;;25.77;15.82;;;;;;;16.77;41.70;99125.34;4992336;28;20030;-76
2021/03/10 10:19:19;;;;;;;26.88;15.98;;;;;;;15.73;42.61;99126.41;4993783;28;20026;-73
2021/03/10 10:21:47;;;;;;;24.00;15.52;;;;;;;15.80;42.53;99120.03;4992899;28;20030;-74
2021/03/10 10:24:14;;;;;;;27.27;17.05;;;;;;;14.13;45.58;99110.66;5003946;28;20506;-74
2021/03/10 10:26:40;;;;;;;25.05;16.10;;;;;;;13.37;48.12;99123.13;4987709;28;20088;-73
2021/03/10 10:29:05;;;;;;;26.40;15.52;;;;;;;12.31;48.72;99123.19;4991803;28;20499;-75
2021/03/10 10:31:30;;;;;;;24.08;15.45;;;;;;;11.55;51.10;99126.06;4991720;28;20022;-72
2021/03/10 10:33:55;;;;;;;25.88;14.88;;;;;;;11.51;50.59;99139.19;4993280;28;20523;-71
2021/03/10 10:36:21;;;;;;;25.10;14.10;;;;;;;10.47;52.03;99126.41;4991451;28;20034;-71
2021/03/10 10:38:46;;;;;;;24.65;13.55;;;;;;;10.26;52.98;99131.78;4990972;28;20065;-72
2021/03/10 10:41:11;;;;;;;22.38;14.02;;;;;;;9.88;53.70;99134.75;4992805;28;20477;-71
2021/03/10 10:43:36;;;;;;;24.30;13.38;;;;;;;9.83;55.20;99134.47;5007542;28;20070;-74
2021/03/10 10:46:02;;;;;;;27.70;14.73;;;;;;;9.79;55.55;99139.41;4991335;28;20034;-72
2021/03/10 10:48:27;;;;;;;21.33;11.95;;;;;;;9.88;54.26;99140.97;4992449;28;20488;-74
2021/03/10 10:50:52;;;;;;;22.40;12.63;;;;;;;9.79;54.62;99141.28;4991333;28;20041;-75
2021/03/10 10:53:17;;;;;;;23.60;11.77;;;;;;;9.62;54.31;99122.59;4992084;28;20404;-72
2021/03/10 10:55:43;;;;;;;20.27;12.35;;;;;;;9.73;55.33;99134.75;4992333;28;20042;-75
2021/03/10 10:58:08;;;;;;;24.98;13.10;;;;;;;9.59;54.38;99133.78;4999923;28;20069;-72
2021/03/10 11:00:33;;;;;;;21.23;11.68;;;;;;;10.04;53.49;99129.09;4992576;28;20030;-73
2021/03/10 11:02:58;;;;;;;21.17;11.80;;;;;;;10.28;52.66;99141.41;4991342;28;20026;-70
2021/03/10 11:05:24;;;;;;;20.70;11.65;;;;;;;10.90;50.65;99137.16;4991178;28;20050;-75
2021/03/10 11:07:49;;;;;;;11.70;6.40;;;;;;;11.92;44.65;99123.94;4992813;28;20026;-72
2021/03/10 11:10:15;;;;;;;13.68;7.88;;;;;;;12.26;44.53;99131.97;4992265;28;20036;-74
2021/03/10 11:12:40;;;;;;;12.25;7.82;;;;;;;12.67;43.24;99103.78;4996209;28;20023;-72
2021/03/10 11:15:07;;;;;;;13.55;7.93;;;;;;;13.90;42.01;99118.53;5008446;28;20033;-75
2021/03/10 11:17:33;;;;;;;13.95;7.90;;;;;;;13.98;42.44;99104.69;5005041;28;20480;-75
2021/03/10 11:19:58;;;;;;;14.98;8.43;;;;;;;12.15;43.80;99123.59;4997349;28;20027;-75
2021/03/10 11:22:23;;;;;;;9.95;6.35;;;;;;;13.75;41.97;99118.81;5005178;28;20522;-75
2021/03/10 11:24:49;;;;;;;11.48;6.75;;;;;;;13.87;40.94;99111.66;4995277;28;20025;-75
2021/03/10 11:27:17;;;;;;;10.35;6.97;;;;;;;14.31;41.30;99099.03;5001420;28;20026;-76
2021/03/10 11:29:43;;;;;;;11.37;7.00;;;;;;;14.22;39.59;99101.16;5000595;28;20018;-76
2021/03/10 11:32:08;;;;;;;12.57;7.18;;;;;;;15.55;39.68;99099.94;4993511;28;20034;-75